Weather at Samil Heliport

Public forecast

Using degrees Celsius for public forecast. Weather courtesy of forecast.io.

Closest aviation weather report (METAR) to Samil Heliport

Closest report is Gimhae International Airport, 6.8 nm (12.7 km) WNW. Retrieved 2020/09/21 02:00 UTC (50 minutes ago):

RKPK 210200Z 02003KT 9999 FEW040 BKN200 22/10 Q1018

Closest aviation forecast (TAF) to Samil Heliport

Closest forecast is Gimhae International Airport, 6.8 nm (12.7 km) WNW. Retrieved 2020-09-21 00:00 UTC (3 hours ago):

TAF RKPK 202300Z 2100/2206 03006KT CAVOK TX26/2106Z TN14/2121Z BECMG 2104/2105 03010KT BECMG 2109/2110 03006KT